Time;durP1;ratioP1;P1;durP2;ratioP2;P2;SDS_P1;SDS_P2;PMS_P1;PMS_P2;Temp;Humidity;BMP_temperature;BMP_pressure;BME280_temperature;BME280_humidity;BME280_pressure;Samples;Min_cycle;Max_cycle;Signal;HPM_P1;HPM_P2
2023/02/20 00:03:22;;;;;;;6.38;5.25;;;;;;;11.60;62.75;98827.97;8409350;28;20427;-69
2023/02/20 00:07:27;;;;;;;6.53;5.10;;;;;;;11.68;62.51;98831.97;8409478;28;20228;-69
2023/02/20 00:11:29;;;;;;;7.47;5.20;;;;;;;11.46;63.71;98836.19;8409916;28;20227;-69
2023/02/20 00:15:32;;;;;;;7.83;5.13;;;;;;;11.49;63.03;98833.50;8409659;28;20228;-70
2023/02/20 00:19:35;;;;;;;8.67;6.10;;;;;;;11.31;63.11;98835.00;8409382;28;20287;-69
2023/02/20 00:23:39;;;;;;;8.80;5.93;;;;;;;11.50;63.40;98841.25;8408724;28;20224;-69
2023/02/20 00:27:42;;;;;;;6.20;5.57;;;;;;;11.58;62.89;98840.16;8408822;28;20409;-69
2023/02/20 00:31:50;;;;;;;8.17;5.90;;;;;;;11.57;62.92;98838.44;8409418;28;20228;-70
2023/02/20 00:35:53;;;;;;;7.10;5.43;;;;;;;11.64;63.16;98838.16;8409280;28;20236;-69
2023/02/20 00:39:58;;;;;;;8.37;5.93;;;;;;;11.43;63.38;98837.16;8408966;28;20409;-70
2023/02/20 00:44:01;;;;;;;7.43;6.00;;;;;;;11.38;64.00;98836.47;8408787;28;20382;-69
2023/02/20 00:48:04;;;;;;;7.97;6.10;;;;;;;11.53;62.63;98827.31;8408870;28;20297;-69
2023/02/20 00:52:07;;;;;;;7.33;5.47;;;;;;;11.60;62.92;98833.16;8408849;28;20243;-69
2023/02/20 00:56:11;;;;;;;11.10;6.40;;;;;;;11.43;62.74;98836.31;8408214;28;20411;-69
2023/02/20 01:00:18;;;;;;;8.20;5.67;;;;;;;10.81;62.43;98706.16;8408705;28;20226;-69
2023/02/20 01:04:21;;;;;;;7.67;6.37;;;;;;;11.51;62.70;98829.97;8408342;28;20232;-69
2023/02/20 01:08:24;;;;;;;9.30;5.70;;;;;;;11.27;62.51;98802.25;8408481;28;20229;-70
2023/02/20 01:12:28;;;;;;;9.37;6.00;;;;;;;11.50;61.70;98838.66;8408429;28;20236;-69
2023/02/20 01:16:31;;;;;;;8.27;5.53;;;;;;;11.59;61.75;98821.06;8408622;28;20217;-69
2023/02/20 01:20:34;;;;;;;6.97;5.60;;;;;;;11.45;62.24;98837.97;8408646;28;20231;-69
2023/02/20 01:24:36;;;;;;;8.87;6.27;;;;;;;11.46;61.99;98825.81;8408383;28;20233;-69
2023/02/20 01:28:43;;;;;;;6.90;5.73;;;;;;;11.37;62.13;98824.41;8408240;28;20228;-69
2023/02/20 01:32:46;;;;;;;7.10;5.70;;;;;;;11.18;62.18;98800.84;8441530;28;20223;-69
2023/02/20 01:36:50;;;;;;;8.80;5.57;;;;;;;11.61;61.52;98827.88;8447629;28;20306;-69
2023/02/20 01:40:52;;;;;;;7.67;5.70;;;;;;;11.50;61.55;98825.69;8447541;28;20575;-69
2023/02/20 01:45:28;;;;;;;9.57;5.77;;;;;;;11.53;61.05;98828.16;8447187;28;20231;-69
2023/02/20 01:49:33;;;;;;;8.47;6.13;;;;;;;11.44;60.96;98823.31;8447290;28;20228;-69
2023/02/20 01:53:36;;;;;;;7.63;6.03;;;;;;;11.42;61.10;98808.69;8447260;28;20231;-69
2023/02/20 01:57:41;;;;;;;8.23;5.70;;;;;;;11.21;60.90;98785.16;8447179;28;20223;-69
2023/02/20 02:01:46;;;;;;;7.50;5.90;;;;;;;11.48;60.13;98803.28;8446236;28;20230;-69
2023/02/20 02:05:52;;;;;;;6.97;5.50;;;;;;;11.20;60.33;98782.66;8446411;28;20231;-69
2023/02/20 02:09:58;;;;;;;7.70;5.53;;;;;;;11.13;61.39;98792.38;8446522;28;20231;-70
2023/02/20 02:14:01;;;;;;;7.30;5.47;;;;;;;11.32;59.96;98810.75;8446362;28;20231;-69
2023/02/20 02:18:42;;;;;;;7.83;5.90;;;;;;;11.25;60.74;98806.66;8446206;28;20223;-69
2023/02/20 02:23:26;;;;;;;10.33;5.73;;;;;;;11.31;60.61;98815.09;8309409;28;20226;-69
2023/02/20 02:27:48;;;;;;;8.20;5.60;;;;;;;11.26;60.42;98804.00;8397742;28;20244;-69
2023/02/20 02:32:13;;;;;;;7.93;5.83;;;;;;;11.26;60.18;98811.78;8445358;28;20223;-69
2023/02/20 02:36:37;;;;;;;8.37;5.70;;;;;;;11.31;60.68;98812.50;8445757;28;20234;-69
2023/02/20 02:40:42;;;;;;;7.87;6.03;;;;;;;11.22;60.50;98794.66;8445482;28;20227;-69
2023/02/20 02:44:50;;;;;;;9.07;5.90;;;;;;;11.21;60.41;98766.19;8411278;28;20229;-69
2023/02/20 02:48:57;;;;;;;9.73;6.17;;;;;;;11.28;60.88;98776.28;8411755;28;20471;-69
2023/02/20 02:53:03;;;;;;;8.33;6.27;;;;;;;11.12;60.57;98773.38;8411789;28;20232;-69
2023/02/20 02:57:25;;;;;;;8.83;6.80;;;;;;;11.19;61.05;98774.00;8411807;28;20251;-68
2023/02/20 03:01:29;;;;;;;8.40;6.47;;;;;;;11.25;60.55;98785.91;8411312;28;20235;-69
2023/02/20 03:05:39;;;;;;;8.50;6.07;;;;;;;11.31;60.49;98783.13;8411437;28;20232;-69
2023/02/20 03:09:46;;;;;;;8.07;6.13;;;;;;;11.30;60.29;98791.78;8419360;28;20519;-69
2023/02/20 03:18:19;;;;;;;9.10;6.07;;;;;;;11.40;60.08;98784.53;8411410;28;20500;-70
2023/02/20 03:22:25;;;;;;;10.07;6.93;;;;;;;11.29;60.64;98790.09;8411393;28;20220;-69
2023/02/20 03:26:32;;;;;;;8.00;6.53;;;;;;;11.31;60.09;98794.34;8411037;28;20232;-69
2023/02/20 03:30:37;;;;;;;11.33;6.57;;;;;;;11.30;60.02;98791.78;8411444;28;20235;-69
2023/02/20 03:43:32;;;;;;;9.13;6.63;;;;;;;11.23;60.28;98792.91;8410325;28;20443;-69
2023/02/20 03:47:37;;;;;;;9.63;6.47;;;;;;;11.06;60.69;98791.75;8409964;28;20239;-69
2023/02/20 03:51:58;;;;;;;8.40;6.03;;;;;;;11.22;60.14;98780.84;8410095;28;20235;-69
2023/02/20 03:56:04;;;;;;;9.37;5.97;;;;;;;11.23;60.05;98783.41;8409014;28;20258;-69
2023/02/20 04:00:12;;;;;;;9.73;6.70;;;;;;;11.23;59.86;98788.59;8409926;28;20220;-69
2023/02/20 04:04:18;;;;;;;10.53;6.07;;;;;;;11.23;60.06;98787.72;8409852;28;20239;-69
2023/02/20 04:08:24;;;;;;;12.70;7.17;;;;;;;10.95;60.14;98742.00;8409487;28;20228;-69
2023/02/20 04:12:32;;;;;;;11.90;6.57;;;;;;;11.23;60.29;98793.78;8409786;28;20534;-69
2023/02/20 04:16:39;;;;;;;9.63;6.60;;;;;;;11.33;59.87;98800.31;8409623;28;20514;-69
2023/02/20 04:20:42;;;;;;;11.10;7.47;;;;;;;11.28;59.81;98789.25;8409342;28;20220;-69
2023/02/20 04:24:49;;;;;;;14.53;7.30;;;;;;;11.05;61.08;98786.59;8409557;28;20228;-69
2023/02/20 04:28:52;;;;;;;11.20;7.73;;;;;;;11.00;60.34;98754.78;8408975;28;20250;-69
2023/02/20 04:32:58;;;;;;;10.00;6.90;;;;;;;11.22;59.91;98783.44;8409224;28;20229;-69
2023/02/20 04:37:07;;;;;;;7.90;7.10;;;;;;;10.52;60.30;98676.88;8409233;28;20244;-70
2023/02/20 04:41:10;;;;;;;8.60;7.03;;;;;;;11.24;60.24;98784.22;8409141;28;20233;-69
2023/02/20 04:45:12;;;;;;;10.03;7.03;;;;;;;11.14;59.85;98766.41;8409191;28;20223;-69
2023/02/20 04:49:16;;;;;;;10.43;7.33;;;;;;;11.08;60.48;98783.88;8409012;28;20407;-69
2023/02/20 04:53:19;;;;;;;9.50;6.87;;;;;;;11.22;59.76;98786.88;8409439;28;20235;-69
2023/02/20 04:57:23;;;;;;;9.80;7.47;;;;;;;11.28;59.60;98794.44;8409353;28;20323;-69
2023/02/20 05:01:25;;;;;;;9.07;6.90;;;;;;;11.02;60.26;98795.31;8408590;28;20239;-69
2023/02/20 05:05:30;;;;;;;10.00;7.70;;;;;;;11.06;59.63;98793.47;8408715;28;20260;-69
2023/02/20 05:09:32;;;;;;;9.50;6.97;;;;;;;11.12;60.11;98799.31;8413644;28;20244;-69
2023/02/20 05:13:35;;;;;;;9.70;6.33;;;;;;;11.02;59.45;98807.41;8414863;28;20423;-69
2023/02/20 05:17:38;;;;;;;9.17;6.80;;;;;;;11.05;59.67;98804.75;8414677;28;20235;-69
2023/02/20 05:26:08;;;;;;;8.30;6.90;;;;;;;10.79;59.35;98813.34;8414226;28;20516;-69
2023/02/20 05:30:13;;;;;;;10.80;6.40;;;;;;;10.92;59.33;98820.66;8414086;28;20440;-69
2023/02/20 05:34:15;;;;;;;8.00;6.50;;;;;;;10.65;59.43;98813.78;8414080;28;20224;-69
2023/02/20 05:38:19;;;;;;;10.33;6.87;;;;;;;10.95;58.85;98822.34;8413903;28;20228;-69
2023/02/20 05:42:22;;;;;;;8.80;6.20;;;;;;;10.81;59.01;98821.91;8413914;28;20228;-70
2023/02/20 05:46:26;;;;;;;8.80;6.03;;;;;;;10.92;58.82;98832.78;8413548;28;20457;-69
2023/02/20 05:50:29;;;;;;;9.67;5.83;;;;;;;10.85;58.82;98833.88;8413762;28;20302;-69
2023/02/20 05:54:33;;;;;;;6.90;5.90;;;;;;;10.71;59.14;98836.91;8413889;28;20415;-69
2023/02/20 05:58:35;;;;;;;9.23;5.70;;;;;;;10.74;58.50;98826.47;8413583;28;20231;-69
2023/02/20 06:02:38;;;;;;;6.67;5.10;;;;;;;10.61;58.75;98812.19;8413093;28;20239;-70
2023/02/20 06:06:42;;;;;;;6.63;5.30;;;;;;;10.68;58.95;98818.84;8412886;28;20247;-69
2023/02/20 06:10:46;;;;;;;8.57;5.60;;;;;;;10.71;58.46;98818.78;8413004;28;20235;-69
2023/02/20 06:14:49;;;;;;;9.80;5.23;;;;;;;10.60;58.78;98815.66;8412969;28;20236;-70
2023/02/20 06:18:52;;;;;;;7.40;5.20;;;;;;;10.70;58.86;98823.13;8412140;28;20232;-70
2023/02/20 06:22:56;;;;;;;6.90;4.70;;;;;;;10.60;58.60;98815.66;8412429;28;20539;-69
2023/02/20 06:27:01;;;;;;;9.07;5.57;;;;;;;10.82;57.84;98829.66;8412599;28;20426;-69
2023/02/20 06:31:03;;;;;;;8.50;5.53;;;;;;;10.78;58.16;98835.00;8412474;28;20224;-70
2023/02/20 06:35:07;;;;;;;8.47;5.40;;;;;;;10.78;57.79;98842.75;8412699;28;20399;-69
2023/02/20 06:39:12;;;;;;;6.03;5.20;;;;;;;10.53;58.04;98820.19;8412496;28;20527;-69
2023/02/20 06:43:16;;;;;;;7.30;5.37;;;;;;;10.73;58.05;98835.94;8412616;28;20410;-68
2023/02/20 06:47:19;;;;;;;9.70;6.00;;;;;;;10.69;58.82;98833.53;8412347;28;20239;-68
2023/02/20 06:51:23;;;;;;;6.63;5.10;;;;;;;10.63;58.73;98829.38;8412747;28;20231;-69
2023/02/20 06:55:26;;;;;;;7.50;5.47;;;;;;;10.57;58.71;98845.09;8412617;28;20231;-69
2023/02/20 06:59:30;;;;;;;9.23;5.40;;;;;;;10.71;58.35;98850.69;8412448;28;20247;-69
2023/02/20 07:03:33;;;;;;;7.87;5.87;;;;;;;10.67;58.39;98861.22;8412105;28;20232;-69
2023/02/20 07:07:39;;;;;;;7.50;5.07;;;;;;;10.70;58.19;98850.75;8411970;28;20240;-70
2023/02/20 07:11:41;;;;;;;8.97;5.90;;;;;;;10.63;58.75;98846.66;8410982;28;20234;-69
2023/02/20 07:15:45;;;;;;;10.07;6.03;;;;;;;10.74;57.61;98835.06;8411286;28;20218;-69
2023/02/20 07:19:49;;;;;;;8.37;5.60;;;;;;;10.97;57.78;98825.72;8411442;28;20232;-70
2023/02/20 07:23:54;;;;;;;7.17;5.63;;;;;;;11.46;55.82;98818.91;8411306;28;20243;-69
2023/02/20 07:27:56;;;;;;;7.20;5.40;;;;;;;11.72;55.43;98835.31;8410543;28;20242;-69
2023/02/20 07:32:00;;;;;;;7.33;4.73;;;;;;;12.07;54.07;98826.31;8410028;28;20519;-69
2023/02/20 07:36:04;;;;;;;7.17;5.07;;;;;;;12.19;53.65;98834.53;8410956;28;20221;-68
2023/02/20 07:40:08;;;;;;;6.60;4.70;;;;;;;12.37;53.31;98840.78;8410884;28;20587;-69
2023/02/20 07:44:11;;;;;;;6.93;4.47;;;;;;;12.31;52.60;98853.09;8410381;28;20231;-69
2023/02/20 07:48:16;;;;;;;7.80;4.37;;;;;;;12.83;52.35;98850.28;8410318;28;20537;-70
2023/02/20 07:52:19;;;;;;;8.63;4.20;;;;;;;12.89;51.45;98850.03;8410020;28;20222;-69
2023/02/20 07:56:23;;;;;;;6.27;4.00;;;;;;;13.32;49.44;98821.44;8409852;28;20228;-69
2023/02/20 08:00:26;;;;;;;7.67;4.30;;;;;;;12.49;51.20;98768.44;8409454;28;20232;-69
2023/02/20 08:04:31;;;;;;;7.23;3.60;;;;;;;13.44;49.27;98807.94;8409771;28;20251;-69
2023/02/20 08:08:33;;;;;;;6.03;3.63;;;;;;;14.38;47.82;98805.50;8409911;28;20234;-70
2023/02/20 08:12:36;;;;;;;6.03;3.53;;;;;;;14.01;47.26;98797.63;8409664;28;20233;-69
2023/02/20 08:16:39;;;;;;;5.83;2.87;;;;;;;14.26;46.67;98815.59;8409552;28;20227;-68
2023/02/20 08:20:43;;;;;;;5.70;3.03;;;;;;;13.93;46.94;98830.13;8409082;28;20228;-69
2023/02/20 08:24:46;;;;;;;4.73;2.93;;;;;;;13.68;47.46;98819.00;8410017;28;20562;-70
2023/02/20 08:28:50;;;;;;;4.60;3.10;;;;;;;14.60;45.99;98794.94;8409838;28;20410;-70
2023/02/20 08:32:53;;;;;;;5.43;2.80;;;;;;;15.37;42.77;98789.41;8409404;28;20243;-71
2023/02/20 08:36:58;;;;;;;5.43;2.47;;;;;;;16.05;41.81;98805.97;8409441;28;20241;-71
2023/02/20 08:41:03;;;;;;;4.20;2.67;;;;;;;16.24;40.33;98817.16;8408829;28;22905;-70
2023/02/20 08:45:07;;;;;;;4.23;2.30;;;;;;;17.08;38.66;98792.47;8414449;28;20228;-70
2023/02/20 08:49:10;;;;;;;4.93;2.37;;;;;;;16.40;40.40;98798.84;8415295;28;20241;-70
2023/02/20 08:53:15;;;;;;;4.63;2.10;;;;;;;16.81;39.63;98793.94;8415799;28;20236;-70
2023/02/20 08:57:18;;;;;;;4.07;2.37;;;;;;;17.15;38.37;98794.66;8415369;28;20554;-70
2023/02/20 09:01:21;;;;;;;4.23;2.00;;;;;;;16.94;38.74;98785.41;8414854;28;20228;-71
2023/02/20 09:05:24;;;;;;;3.87;2.27;;;;;;;17.43;38.32;98779.09;8415472;28;20258;-70
2023/02/20 09:09:29;;;;;;;3.13;1.80;;;;;;;17.85;37.92;98780.06;8414969;28;20247;-69
2023/02/20 09:13:33;;;;;;;4.23;2.13;;;;;;;17.70;37.32;98768.72;8415035;28;20231;-70
2023/02/20 09:17:35;;;;;;;2.83;1.70;;;;;;;18.70;36.31;98765.94;8414864;28;20236;-70
2023/02/20 09:21:38;;;;;;;3.40;2.00;;;;;;;17.90;36.66;98760.50;8414921;28;20551;-70
2023/02/20 09:25:42;;;;;;;4.57;2.40;;;;;;;17.85;37.27;98774.84;8414701;28;20485;-70
2023/02/20 09:29:46;;;;;;;4.00;1.90;;;;;;;18.50;36.86;98758.53;8429060;28;20255;-70
2023/02/20 09:33:50;;;;;;;4.33;1.97;;;;;;;19.14;35.55;98758.75;8414353;28;20232;-70
2023/02/20 09:37:54;;;;;;;4.97;1.87;;;;;;;19.25;35.74;98756.25;8414211;28;20236;-70
2023/02/20 09:42:08;;;;;;;3.87;2.13;;;;;;;18.14;36.35;98747.66;8414521;28;20225;-70
2023/02/20 09:46:14;;;;;;;3.40;2.03;;;;;;;17.88;36.99;98709.16;8414335;28;20223;-71
2023/02/20 09:50:27;;;;;;;4.43;2.33;;;;;;;17.50;38.17;98738.50;8414040;28;20232;-70
2023/02/20 09:54:33;;;;;;;2.50;2.10;;;;;;;17.28;39.30;98733.72;8412941;28;20228;-70
2023/02/20 09:58:42;;;;;;;8.20;1.93;;;;;;;17.63;53.67;98722.88;8413782;28;20231;-70
2023/02/20 10:02:48;;;;;;;6.20;2.20;;;;;;;16.19;50.81;98719.84;8421561;28;20224;-70
2023/02/20 10:06:52;;;;;;;5.07;2.60;;;;;;;15.95;44.96;98719.41;8413509;28;20244;-71
2023/02/20 10:11:02;;;;;;;5.30;2.50;;;;;;;15.53;45.57;98700.72;8403163;28;20234;-69
2023/02/20 10:15:19;;;;;;;11.93;2.47;;;;;;;16.37;43.50;98684.00;8413205;28;20231;-69
2023/02/20 10:19:28;;;;;;;5.03;2.50;;;;;;;15.68;42.16;98708.66;8413336;28;20237;-69
2023/02/20 10:23:38;;;;;;;4.60;2.47;;;;;;;15.98;42.42;98708.81;8413467;28;20305;-70
2023/02/20 10:27:52;;;;;;;4.60;2.30;;;;;;;16.05;42.07;98699.72;8412332;28;20237;-69
2023/02/20 10:32:04;;;;;;;5.47;2.07;;;;;;;15.44;43.63;98688.16;8413395;28;20231;-69
2023/02/20 10:36:11;;;;;;;5.07;2.50;;;;;;;15.42;44.06;98700.44;8412818;28;20234;-70
2023/02/20 10:40:19;;;;;;;5.33;2.70;;;;;;;14.81;45.19;98671.38;8412783;28;20292;-70
2023/02/20 10:44:26;;;;;;;5.60;2.50;;;;;;;14.95;45.05;98675.88;8412611;28;20221;-70
2023/02/20 10:48:32;;;;;;;5.50;2.53;;;;;;;15.51;44.02;98675.63;8412621;28;20519;-70
2023/02/20 10:52:37;;;;;;;4.53;2.60;;;;;;;15.66;43.85;98666.97;8412361;28;20444;-69
2023/02/20 10:56:43;;;;;;;6.23;2.53;;;;;;;15.61;43.86;98658.53;8411561;28;20236;-69
2023/02/20 11:00:52;;;;;;;5.43;2.20;;;;;;;15.51;44.02;98657.34;8411049;28;20229;-68
2023/02/20 11:05:01;;;;;;;5.73;2.37;;;;;;;16.21;42.77;98643.03;8411339;28;20233;-70
2023/02/20 11:09:04;;;;;;;4.50;2.30;;;;;;;16.18;42.29;98631.94;8411099;28;20222;-70
2023/02/20 11:13:11;;;;;;;5.07;2.40;;;;;;;16.17;41.61;98625.03;8411024;28;20236;-70
2023/02/20 11:17:16;;;;;;;3.87;1.80;;;;;;;16.34;41.07;98617.06;8411100;28;20247;-69
2023/02/20 11:21:36;;;;;;;4.65;2.40;;;;;;;16.77;39.95;98618.94;8409600;28;20723;-69
2023/02/20 11:25:41;;;;;;;4.67;2.37;;;;;;;16.45;39.78;98587.69;8410750;28;20234;-67
2023/02/20 11:29:48;;;;;;;5.27;2.20;;;;;;;17.35;38.94;98591.88;8410089;28;20442;-67
2023/02/20 11:33:54;;;;;;;4.87;2.30;;;;;;;16.61;39.68;98591.06;8410421;28;20239;-69
2023/02/20 11:38:28;;;;;;;6.43;2.30;;;;;;;16.71;40.46;98593.97;8410227;28;20558;-68
2023/02/20 11:42:33;;;;;;;6.77;2.30;;;;;;;16.38;41.10;98591.59;8410286;28;20235;-68
2023/02/20 11:46:37;;;;;;;6.53;2.50;;;;;;;16.74;40.30;98592.97;8410389;28;20422;-69
2023/02/20 11:50:41;;;;;;;5.90;2.30;;;;;;;16.83;40.77;98583.75;8410433;28;20319;-69
2023/02/20 11:54:46;;;;;;;6.40;2.93;;;;;;;16.25;41.12;98586.22;8409668;28;20224;-69
2023/02/20 11:58:50;;;;;;;3.57;2.50;;;;;;;17.25;39.99;98568.97;8410055;28;20551;-69
2023/02/20 12:02:55;;;;;;;5.70;2.87;;;;;;;16.95;40.02;98567.34;8409758;28;20240;-67
2023/02/20 12:06:59;;;;;;;4.87;2.67;;;;;;;16.89;39.75;98555.47;8409916;28;20236;-67
2023/02/20 12:11:05;;;;;;;3.87;2.80;;;;;;;17.58;39.11;98540.69;8410005;28;20535;-69
2023/02/20 12:15:13;;;;;;;4.70;2.80;;;;;;;17.04;39.14;98551.06;8409934;28;20239;-68
2023/02/20 12:19:20;;;;;;;4.97;2.90;;;;;;;17.05;38.64;98529.19;8409526;28;20230;-68
2023/02/20 12:23:27;;;;;;;5.67;2.93;;;;;;;17.21;38.55;98500.31;8410089;28;20520;-70
2023/02/20 12:27:48;;;;;;;5.57;2.70;;;;;;;17.89;37.96;98532.66;8409105;28;20269;-69
2023/02/20 12:31:59;;;;;;;4.83;2.57;;;;;;;17.30;38.03;98517.19;8409041;28;20228;-69
2023/02/20 12:36:09;;;;;;;4.30;2.87;;;;;;;17.22;39.19;98512.44;8409450;28;20401;-69
2023/02/20 12:40:30;;;;;;;4.40;3.00;;;;;;;17.11;38.97;98513.09;8409572;28;20333;-69
2023/02/20 12:45:06;;;;;;;3.37;2.77;;;;;;;17.19;38.28;98502.16;8409415;28;20229;-71
2023/02/20 12:49:22;;;;;;;3.63;2.90;;;;;;;17.11;38.29;98494.78;8382646;28;20223;-69
2023/02/20 12:53:31;;;;;;;3.53;2.80;;;;;;;17.26;38.56;98493.00;8409336;28;20239;-69
2023/02/20 12:57:42;;;;;;;4.23;2.97;;;;;;;17.24;38.14;98483.56;8409212;28;20247;-69
2023/02/20 13:01:46;;;;;;;3.83;2.50;;;;;;;17.58;37.35;98483.06;8408266;28;20227;-70
2023/02/20 13:05:51;;;;;;;4.23;2.77;;;;;;;17.56;37.81;98482.34;8409027;28;20232;-70
2023/02/20 13:10:00;;;;;;;4.37;2.57;;;;;;;18.07;37.45;98476.44;8408826;28;20239;-70
2023/02/20 13:14:09;;;;;;;4.80;2.40;;;;;;;18.52;37.14;98476.88;8408760;28;20540;-70
2023/02/20 13:18:23;;;;;;;3.67;2.67;;;;;;;17.79;36.28;98480.00;8408799;28;20513;-69
2023/02/20 13:22:26;;;;;;;3.30;2.27;;;;;;;18.03;35.29;98474.09;8408545;28;20228;-68
2023/02/20 13:26:47;;;;;;;3.33;2.03;;;;;;;18.24;35.23;98451.69;8408775;28;20236;-71
2023/02/20 13:31:20;;;;;;;3.13;2.20;;;;;;;18.07;34.27;98462.50;8413451;28;20235;-68
2023/02/20 13:35:42;;;;;;;3.03;2.03;;;;;;;18.10;34.62;98455.22;8380058;28;20248;-70
2023/02/20 13:39:45;;;;;;;3.13;1.80;;;;;;;18.71;34.32;98455.41;8436666;28;20510;-68
2023/02/20 13:43:48;;;;;;;5.03;2.20;;;;;;;17.97;34.57;98441.28;8415072;28;20224;-68
2023/02/20 13:47:51;;;;;;;4.10;2.27;;;;;;;18.88;33.72;98435.91;8414560;28;20231;-69
2023/02/20 13:51:55;;;;;;;3.93;2.37;;;;;;;19.23;32.79;98436.94;8412833;28;20435;-71
2023/02/20 13:55:59;;;;;;;2.77;1.90;;;;;;;18.65;33.50;98431.41;8414495;28;21032;-69
2023/02/20 14:00:06;;;;;;;4.47;2.27;;;;;;;18.62;33.43;98429.00;8414240;28;20229;-70
2023/02/20 14:04:10;;;;;;;5.47;2.20;;;;;;;18.77;33.80;98414.81;8413823;28;20305;-70
2023/02/20 14:08:18;;;;;;;5.57;2.43;;;;;;;18.43;33.61;98421.56;8414042;28;20228;-71
2023/02/20 14:12:21;;;;;;;3.87;2.00;;;;;;;18.73;33.66;98421.22;8413919;28;20250;-70
2023/02/20 14:16:29;;;;;;;3.77;1.97;;;;;;;18.51;32.64;98412.25;8414041;28;20247;-70
2023/02/20 14:20:34;;;;;;;4.80;2.20;;;;;;;18.83;33.13;98406.56;8414330;28;20254;-70
2023/02/20 14:24:39;;;;;;;6.17;2.30;;;;;;;18.73;33.67;98406.34;8413973;28;20224;-69
2023/02/20 14:28:46;;;;;;;3.27;2.30;;;;;;;18.35;33.21;98388.88;8413097;28;20229;-71
2023/02/20 14:32:51;;;;;;;4.33;2.37;;;;;;;18.82;33.69;98391.75;8413559;28;20236;-69
2023/02/20 14:37:03;;;;;;;3.80;2.10;;;;;;;18.61;32.83;98390.63;8413725;28;20220;-70
2023/02/20 14:41:13;;;;;;;4.03;1.90;;;;;;;18.77;33.09;98388.56;8412824;28;20239;-70
2023/02/20 14:45:19;;;;;;;2.87;1.83;;;;;;;18.75;33.22;98366.84;8412952;28;20229;-70
2023/02/20 14:49:27;;;;;;;9.37;6.47;;;;;;;18.56;33.18;98354.22;8412942;28;20229;-68
2023/02/20 14:53:30;;;;;;;4.17;2.37;;;;;;;18.23;33.84;98360.88;8412026;28;20242;-70
2023/02/20 14:57:34;;;;;;;5.73;2.10;;;;;;;17.93;33.43;98356.81;8412448;28;20260;-70
2023/02/20 15:01:40;;;;;;;3.70;1.80;;;;;;;17.94;34.02;98360.28;8412309;28;20243;-69
2023/02/20 15:05:43;;;;;;;2.43;1.70;;;;;;;18.07;33.81;98345.38;8411571;28;20435;-69
2023/02/20 15:09:47;;;;;;;6.03;2.10;;;;;;;17.78;33.58;98332.47;8411848;28;20554;-69
2023/02/20 15:13:52;;;;;;;3.03;2.57;;;;;;;17.83;33.80;98352.28;8411838;28;20235;-69
2023/02/20 15:18:07;;;;;;;4.40;1.63;;;;;;;17.64;34.35;98347.44;8411809;28;20246;-69
2023/02/20 15:22:23;;;;;;;4.63;2.20;;;;;;;17.20;35.07;98331.13;8411348;28;20228;-69
2023/02/20 15:26:27;;;;;;;3.73;2.53;;;;;;;16.91;35.95;98344.31;8411407;28;20531;-69
2023/02/20 15:30:31;;;;;;;6.43;2.77;;;;;;;17.14;35.70;98340.22;8410842;28;20233;-69
2023/02/20 15:34:36;;;;;;;3.58;1.70;;;;;;;16.96;36.31;98341.41;8410669;28;20467;-71
2023/02/20 15:38:40;;;;;;;4.27;2.20;;;;;;;16.70;36.38;98333.44;8410569;28;20237;-70
2023/02/20 15:42:42;;;;;;;2.93;1.57;;;;;;;16.23;37.10;98332.00;8410112;28;20414;-71
2023/02/20 15:46:47;;;;;;;5.43;2.63;;;;;;;16.19;37.72;98339.19;8410587;28;20243;-69
2023/02/20 15:50:50;;;;;;;4.23;2.60;;;;;;;16.01;38.13;98327.25;8410630;28;20658;-70
2023/02/20 15:54:54;;;;;;;3.50;1.80;;;;;;;15.98;37.76;98320.44;8409869;28;20242;-70
2023/02/20 15:59:05;;;;;;;3.93;2.03;;;;;;;15.71;38.07;98317.69;8410211;28;20257;-70
2023/02/20 16:03:09;;;;;;;3.33;2.10;;;;;;;15.83;38.28;98316.97;8410299;28;20257;-70
2023/02/20 16:07:12;;;;;;;3.57;2.10;;;;;;;15.50;39.19;98321.56;8410184;28;20427;-71
2023/02/20 16:11:15;;;;;;;3.47;2.10;;;;;;;15.53;40.23;98305.72;8410241;28;20421;-70
2023/02/20 16:15:20;;;;;;;4.70;2.33;;;;;;;15.48;39.32;98292.97;8409915;28;20414;-70
2023/02/20 16:19:24;;;;;;;6.93;3.87;;;;;;;15.54;39.32;98316.09;8409771;28;20423;-71
2023/02/20 16:23:44;;;;;;;6.63;4.10;;;;;;;15.52;39.58;98297.06;8409253;28;20238;-70
2023/02/20 16:27:51;;;;;;;8.97;5.97;;;;;;;15.28;40.08;98308.94;8409521;28;20237;-70
2023/02/20 16:32:15;;;;;;;6.87;5.40;;;;;;;15.30;40.07;98305.31;8409727;28;20268;-70
2023/02/20 16:36:20;;;;;;;6.67;5.57;;;;;;;15.29;40.27;98308.84;8409664;28;20230;-70
2023/02/20 16:40:26;;;;;;;8.93;6.33;;;;;;;15.19;40.61;98315.50;8409530;28;20229;-70
2023/02/20 16:44:35;;;;;;;6.60;4.83;;;;;;;15.07;40.61;98311.00;8409487;28;20288;-68
2023/02/20 16:48:42;;;;;;;5.70;3.13;;;;;;;14.88;40.80;98298.19;8409561;28;20532;-68
2023/02/20 16:52:47;;;;;;;3.40;2.07;;;;;;;14.84;41.08;98305.34;8408420;28;20296;-69
2023/02/20 16:56:52;;;;;;;4.23;2.10;;;;;;;14.68;41.20;98300.16;8405964;28;20236;-68
2023/02/20 17:00:55;;;;;;;4.00;2.07;;;;;;;14.82;41.00;98305.41;8377988;28;20362;-68
2023/02/20 17:05:00;;;;;;;5.77;1.97;;;;;;;14.81;42.27;98308.09;8381718;28;20534;-69
2023/02/20 17:09:04;;;;;;;4.50;2.27;;;;;;;14.66;41.63;98318.47;8384303;28;20228;-68
2023/02/20 17:13:23;;;;;;;7.50;3.90;;;;;;;14.70;40.71;98313.94;8384042;28;20255;-68
2023/02/20 17:17:27;;;;;;;4.37;2.57;;;;;;;14.58;41.29;98309.38;8384308;28;20264;-68
2023/02/20 17:21:30;;;;;;;6.13;2.67;;;;;;;14.41;41.68;98318.97;8384182;28;20240;-68
2023/02/20 17:25:41;;;;;;;5.80;2.60;;;;;;;14.50;41.57;98316.75;8384109;28;20540;-68
2023/02/20 17:29:45;;;;;;;7.20;5.20;;;;;;;14.28;41.74;98286.69;8383536;28;20225;-67
2023/02/20 17:33:48;;;;;;;5.07;2.70;;;;;;;14.38;42.06;98329.53;8383781;28;20232;-67
2023/02/20 17:37:51;;;;;;;3.70;2.73;;;;;;;14.23;42.14;98327.75;8383869;28;20386;-69
2023/02/20 17:41:57;;;;;;;6.70;4.13;;;;;;;14.18;42.21;98334.97;8383247;28;20236;-67
2023/02/20 17:46:00;;;;;;;5.90;2.90;;;;;;;14.18;42.33;98338.41;8383599;28;20422;-68
2023/02/20 17:50:06;;;;;;;5.17;2.27;;;;;;;14.01;42.33;98328.91;8385790;28;20229;-67
2023/02/20 17:54:09;;;;;;;8.50;3.07;;;;;;;13.95;42.91;98334.41;8383274;28;20232;-68
2023/02/20 17:58:16;;;;;;;7.60;2.90;;;;;;;13.89;42.67;98322.53;8383191;28;20233;-68
2023/02/20 18:02:19;;;;;;;4.73;2.50;;;;;;;13.85;43.06;98339.25;8383429;28;20247;-68
2023/02/20 18:06:22;;;;;;;6.87;2.90;;;;;;;14.02;42.87;98334.94;8383091;28;20232;-69
2023/02/20 18:10:25;;;;;;;9.40;3.33;;;;;;;13.49;44.05;98319.38;8383234;28;20231;-68
2023/02/20 18:14:29;;;;;;;6.00;3.33;;;;;;;13.49;44.51;98328.97;8382279;28;20538;-68
2023/02/20 18:18:37;;;;;;;7.50;3.30;;;;;;;13.58;44.24;98297.28;8382898;28;20228;-68
2023/02/20 18:22:40;;;;;;;5.17;3.13;;;;;;;13.69;44.51;98326.19;8382823;28;20239;-68
2023/02/20 18:26:44;;;;;;;6.27;3.17;;;;;;;13.14;45.15;98289.94;8381672;28;20229;-67
2023/02/20 18:30:53;;;;;;;7.00;3.07;;;;;;;13.46;44.82;98335.19;8382088;28;20239;-68
2023/02/20 18:34:56;;;;;;;6.50;3.27;;;;;;;13.38;45.43;98336.47;8381596;28;20235;-67
2023/02/20 18:38:58;;;;;;;5.10;2.87;;;;;;;13.52;44.96;98327.97;8381493;28;20237;-68
2023/02/20 18:43:02;;;;;;;4.73;2.87;;;;;;;13.59;44.85;98326.75;8381090;28;20267;-68
2023/02/20 18:47:08;;;;;;;5.03;2.90;;;;;;;13.67;44.41;98324.59;8381206;28;20222;-68
2023/02/20 18:51:12;;;;;;;5.60;3.00;;;;;;;13.60;45.18;98312.81;8381413;28;20235;-68
2023/02/20 18:55:17;;;;;;;9.60;5.80;;;;;;;13.61;45.23;98319.69;8381247;28;20285;-68
2023/02/20 18:59:21;;;;;;;8.33;4.43;;;;;;;13.46;45.49;98318.69;8380629;28;20250;-68
2023/02/20 19:03:26;;;;;;;9.87;3.57;;;;;;;13.45;45.76;98319.63;8390876;28;20231;-69
2023/02/20 19:07:29;;;;;;;5.90;2.93;;;;;;;13.43;45.94;98319.72;8380566;28;20232;-68
2023/02/20 19:11:31;;;;;;;5.90;3.53;;;;;;;13.44;45.93;98311.00;8380497;28;20532;-67
2023/02/20 19:15:34;;;;;;;6.67;3.40;;;;;;;13.42;46.32;98324.97;8380128;28;20523;-66
2023/02/20 19:19:40;;;;;;;7.53;3.20;;;;;;;13.57;45.89;98310.34;8379355;28;20242;-66
2023/02/20 19:23:44;;;;;;;7.20;3.00;;;;;;;12.86;46.78;98256.66;8379415;28;20234;-66
2023/02/20 19:27:48;;;;;;;6.23;3.50;;;;;;;13.37;46.31;98317.41;8379494;28;20250;-67
2023/02/20 19:31:50;;;;;;;4.20;3.30;;;;;;;13.34;46.61;98321.94;8379498;28;20243;-66
2023/02/20 19:35:55;;;;;;;7.60;3.13;;;;;;;13.47;46.29;98300.41;8379245;28;20230;-66
2023/02/20 19:39:58;;;;;;;6.30;3.07;;;;;;;13.33;46.44;98322.84;8379376;28;20410;-66